sensor_id;sensor_type;location;lat;lon;timestamp;pressure;altitude;pressure_sealevel;temperature
19666;BMP180;9980;51.020;7.772;2023-12-20T00:02:17;97274.00;;;10.60
19666;BMP180;9980;51.020;7.772;2023-12-20T00:04:44;97263.00;;;10.60
19666;BMP180;9980;51.020;7.772;2023-12-20T00:07:11;97275.00;;;10.60
19666;BMP180;9980;51.020;7.772;2023-12-20T00:09:38;97271.00;;;10.70
19666;BMP180;9980;51.020;7.772;2023-12-20T00:12:05;97267.00;;;10.60
19666;BMP180;9980;51.020;7.772;2023-12-20T00:14:32;97271.00;;;10.70
19666;BMP180;9980;51.020;7.772;2023-12-20T00:16:59;97274.00;;;10.70
19666;BMP180;9980;51.020;7.772;2023-12-20T00:19:26;97264.00;;;10.70
19666;BMP180;9980;51.020;7.772;2023-12-20T00:21:53;97275.00;;;10.70
19666;BMP180;9980;51.020;7.772;2023-12-20T00:24:20;97262.00;;;10.70
19666;BMP180;9980;51.020;7.772;2023-12-20T00:26:47;97265.00;;;10.70
19666;BMP180;9980;51.020;7.772;2023-12-20T00:29:14;97256.00;;;10.70
19666;BMP180;9980;51.020;7.772;2023-12-20T00:31:41;97238.00;;;10.70
19666;BMP180;9980;51.020;7.772;2023-12-20T00:34:07;97245.00;;;10.70
19666;BMP180;9980;51.020;7.772;2023-12-20T00:36:35;97258.00;;;10.70
19666;BMP180;9980;51.020;7.772;2023-12-20T00:39:02;97244.00;;;10.80
19666;BMP180;9980;51.020;7.772;2023-12-20T00:41:29;97223.00;;;10.80
19666;BMP180;9980;51.020;7.772;2023-12-20T00:43:56;97236.00;;;10.80
19666;BMP180;9980;51.020;7.772;2023-12-20T00:46:23;97244.00;;;10.80
19666;BMP180;9980;51.020;7.772;2023-12-20T00:48:50;97252.00;;;10.80
19666;BMP180;9980;51.020;7.772;2023-12-20T00:51:17;97239.00;;;10.80
19666;BMP180;9980;51.020;7.772;2023-12-20T00:53:44;97232.00;;;10.80
19666;BMP180;9980;51.020;7.772;2023-12-20T00:56:12;97255.00;;;10.80
19666;BMP180;9980;51.020;7.772;2023-12-20T00:58:39;97231.00;;;10.80
19666;BMP180;9980;51.020;7.772;2023-12-20T01:01:06;97232.00;;;10.80
19666;BMP180;9980;51.020;7.772;2023-12-20T01:03:33;97241.00;;;10.90
19666;BMP180;9980;51.020;7.772;2023-12-20T01:06:00;97228.00;;;10.80
19666;BMP180;9980;51.020;7.772;2023-12-20T01:08:27;97226.00;;;10.80
19666;BMP180;9980;51.020;7.772;2023-12-20T01:10:54;97242.00;;;10.80
19666;BMP180;9980;51.020;7.772;2023-12-20T01:13:21;97240.00;;;10.80
19666;BMP180;9980;51.020;7.772;2023-12-20T01:15:47;97247.00;;;10.80
19666;BMP180;9980;51.020;7.772;2023-12-20T01:18:14;97267.00;;;10.80
19666;BMP180;9980;51.020;7.772;2023-12-20T01:20:42;97262.00;;;10.80
19666;BMP180;9980;51.020;7.772;2023-12-20T01:23:09;97262.00;;;10.80
19666;BMP180;9980;51.020;7.772;2023-12-20T01:25:36;97274.00;;;10.80
19666;BMP180;9980;51.020;7.772;2023-12-20T01:28:03;97273.00;;;10.80
19666;BMP180;9980;51.020;7.772;2023-12-20T01:30:30;97278.00;;;10.80
19666;BMP180;9980;51.020;7.772;2023-12-20T01:33:00;97298.00;;;10.80
19666;BMP180;9980;51.020;7.772;2023-12-20T01:35:27;97278.00;;;10.70
19666;BMP180;9980;51.020;7.772;2023-12-20T01:37:54;97286.00;;;10.70
19666;BMP180;9980;51.020;7.772;2023-12-20T01:40:23;97281.00;;;10.70
19666;BMP180;9980;51.020;7.772;2023-12-20T01:43:00;97293.00;;;10.60
19666;BMP180;9980;51.020;7.772;2023-12-20T01:45:28;97282.00;;;10.60
19666;BMP180;9980;51.020;7.772;2023-12-20T01:47:57;97296.00;;;10.60
19666;BMP180;9980;51.020;7.772;2023-12-20T01:50:26;97301.00;;;10.60
19666;BMP180;9980;51.020;7.772;2023-12-20T01:53:00;97318.00;;;10.60
19666;BMP180;9980;51.020;7.772;2023-12-20T01:55:31;97301.00;;;10.50
19666;BMP180;9980;51.020;7.772;2023-12-20T01:58:00;97310.00;;;10.50
19666;BMP180;9980;51.020;7.772;2023-12-20T02:00:29;97307.00;;;10.50
19666;BMP180;9980;51.020;7.772;2023-12-20T02:03:00;97312.00;;;10.50
19666;BMP180;9980;51.020;7.772;2023-12-20T02:05:30;97305.00;;;10.50
19666;BMP180;9980;51.020;7.772;2023-12-20T02:07:58;97300.00;;;10.40
19666;BMP180;9980;51.020;7.772;2023-12-20T02:10:26;97296.00;;;10.40
19666;BMP180;9980;51.020;7.772;2023-12-20T02:12:53;97305.00;;;10.40
19666;BMP180;9980;51.020;7.772;2023-12-20T02:15:20;97293.00;;;10.40
19666;BMP180;9980;51.020;7.772;2023-12-20T02:17:48;97290.00;;;10.30
19666;BMP180;9980;51.020;7.772;2023-12-20T02:20:16;97295.00;;;10.30
19666;BMP180;9980;51.020;7.772;2023-12-20T02:22:43;97297.00;;;10.30
19666;BMP180;9980;51.020;7.772;2023-12-20T02:25:09;97299.00;;;10.30
19666;BMP180;9980;51.020;7.772;2023-12-20T02:27:37;97297.00;;;10.30
19666;BMP180;9980;51.020;7.772;2023-12-20T02:30:05;97303.00;;;10.30
19666;BMP180;9980;51.020;7.772;2023-12-20T02:32:32;97301.00;;;10.30
19666;BMP180;9980;51.020;7.772;2023-12-20T02:34:59;97303.00;;;10.20
19666;BMP180;9980;51.020;7.772;2023-12-20T02:37:26;97300.00;;;10.20
19666;BMP180;9980;51.020;7.772;2023-12-20T02:39:52;97302.00;;;10.20
19666;BMP180;9980;51.020;7.772;2023-12-20T02:42:19;97310.00;;;10.20
19666;BMP180;9980;51.020;7.772;2023-12-20T02:44:46;97314.00;;;10.20
19666;BMP180;9980;51.020;7.772;2023-12-20T02:47:13;97310.00;;;10.20
19666;BMP180;9980;51.020;7.772;2023-12-20T02:49:40;97322.00;;;10.20
19666;BMP180;9980;51.020;7.772;2023-12-20T02:52:07;97326.00;;;10.10
19666;BMP180;9980;51.020;7.772;2023-12-20T02:54:34;97326.00;;;10.10
19666;BMP180;9980;51.020;7.772;2023-12-20T02:57:01;97322.00;;;10.10
19666;BMP180;9980;51.020;7.772;2023-12-20T02:59:28;97319.00;;;10.10
19666;BMP180;9980;51.020;7.772;2023-12-20T03:01:55;97314.00;;;10.10
19666;BMP180;9980;51.020;7.772;2023-12-20T03:04:22;97316.00;;;10.00
19666;BMP180;9980;51.020;7.772;2023-12-20T03:06:49;97318.00;;;10.00
19666;BMP180;9980;51.020;7.772;2023-12-20T03:09:16;97326.00;;;10.00
19666;BMP180;9980;51.020;7.772;2023-12-20T03:11:42;97330.00;;;10.00
19666;BMP180;9980;51.020;7.772;2023-12-20T03:14:09;97333.00;;;10.00
19666;BMP180;9980;51.020;7.772;2023-12-20T03:16:36;97325.00;;;10.00
19666;BMP180;9980;51.020;7.772;2023-12-20T03:19:03;97339.00;;;10.00
19666;BMP180;9980;51.020;7.772;2023-12-20T03:21:30;97333.00;;;10.00
19666;BMP180;9980;51.020;7.772;2023-12-20T03:23:57;97326.00;;;10.00
19666;BMP180;9980;51.020;7.772;2023-12-20T03:26:24;97329.00;;;10.00
19666;BMP180;9980;51.020;7.772;2023-12-20T03:28:51;97346.00;;;9.90
19666;BMP180;9980;51.020;7.772;2023-12-20T03:31:18;97343.00;;;9.90
19666;BMP180;9980;51.020;7.772;2023-12-20T03:33:46;97353.00;;;9.90
19666;BMP180;9980;51.020;7.772;2023-12-20T03:36:13;97354.00;;;9.80
19666;BMP180;9980;51.020;7.772;2023-12-20T03:38:40;97344.00;;;9.80
19666;BMP180;9980;51.020;7.772;2023-12-20T03:41:07;97329.00;;;9.80
19666;BMP180;9980;51.020;7.772;2023-12-20T03:43:34;97342.00;;;9.80
19666;BMP180;9980;51.020;7.772;2023-12-20T03:46:02;97332.00;;;9.70
19666;BMP180;9980;51.020;7.772;2023-12-20T03:48:33;97310.00;;;9.70
19666;BMP180;9980;51.020;7.772;2023-12-20T03:51:00;97309.00;;;9.70
19666;BMP180;9980;51.020;7.772;2023-12-20T03:53:27;97323.00;;;9.70
19666;BMP180;9980;51.020;7.772;2023-12-20T03:55:54;97325.00;;;9.70
19666;BMP180;9980;51.020;7.772;2023-12-20T03:58:21;97315.00;;;9.70
19666;BMP180;9980;51.020;7.772;2023-12-20T04:00:47;97309.00;;;9.70
19666;BMP180;9980;51.020;7.772;2023-12-20T04:03:15;97320.00;;;9.70
19666;BMP180;9980;51.020;7.772;2023-12-20T04:05:41;97315.00;;;9.70
19666;BMP180;9980;51.020;7.772;2023-12-20T04:08:09;97316.00;;;9.60
19666;BMP180;9980;51.020;7.772;2023-12-20T04:10:36;97322.00;;;9.70
19666;BMP180;9980;51.020;7.772;2023-12-20T04:13:04;97326.00;;;9.70
19666;BMP180;9980;51.020;7.772;2023-12-20T04:15:31;97335.00;;;9.70
19666;BMP180;9980;51.020;7.772;2023-12-20T04:17:58;97341.00;;;9.60
19666;BMP180;9980;51.020;7.772;2023-12-20T04:20:25;97340.00;;;9.60
19666;BMP180;9980;51.020;7.772;2023-12-20T04:22:52;97339.00;;;9.60
19666;BMP180;9980;51.020;7.772;2023-12-20T04:25:19;97338.00;;;9.60
19666;BMP180;9980;51.020;7.772;2023-12-20T04:27:46;97345.00;;;9.60
19666;BMP180;9980;51.020;7.772;2023-12-20T04:30:13;97338.00;;;9.60
19666;BMP180;9980;51.020;7.772;2023-12-20T04:32:40;97339.00;;;9.60
19666;BMP180;9980;51.020;7.772;2023-12-20T04:35:07;97335.00;;;9.60
19666;BMP180;9980;51.020;7.772;2023-12-20T04:37:35;97335.00;;;9.60
19666;BMP180;9980;51.020;7.772;2023-12-20T04:40:02;97348.00;;;9.50
19666;BMP180;9980;51.020;7.772;2023-12-20T04:42:29;97348.00;;;9.50
19666;BMP180;9980;51.020;7.772;2023-12-20T04:44:56;97350.00;;;9.50
19666;BMP180;9980;51.020;7.772;2023-12-20T04:47:23;97350.00;;;9.50
19666;BMP180;9980;51.020;7.772;2023-12-20T04:49:50;97345.00;;;9.50
19666;BMP180;9980;51.020;7.772;2023-12-20T04:52:17;97336.00;;;9.50
19666;BMP180;9980;51.020;7.772;2023-12-20T04:54:44;97333.00;;;9.40
19666;BMP180;9980;51.020;7.772;2023-12-20T04:57:11;97347.00;;;9.40
19666;BMP180;9980;51.020;7.772;2023-12-20T04:59:38;97333.00;;;9.40
19666;BMP180;9980;51.020;7.772;2023-12-20T05:02:04;97325.00;;;9.40
19666;BMP180;9980;51.020;7.772;2023-12-20T05:04:31;97332.00;;;9.40
19666;BMP180;9980;51.020;7.772;2023-12-20T05:06:59;97343.00;;;9.40
19666;BMP180;9980;51.020;7.772;2023-12-20T05:09:26;97333.00;;;9.30
19666;BMP180;9980;51.020;7.772;2023-12-20T05:11:52;97329.00;;;9.30
19666;BMP180;9980;51.020;7.772;2023-12-20T05:14:19;97338.00;;;9.30
19666;BMP180;9980;51.020;7.772;2023-12-20T05:16:46;97335.00;;;9.30
19666;BMP180;9980;51.020;7.772;2023-12-20T05:19:13;97328.00;;;9.30
19666;BMP180;9980;51.020;7.772;2023-12-20T05:21:40;97327.00;;;9.30
19666;BMP180;9980;51.020;7.772;2023-12-20T05:24:07;97320.00;;;9.30
19666;BMP180;9980;51.020;7.772;2023-12-20T05:26:34;97317.00;;;9.30
19666;BMP180;9980;51.020;7.772;2023-12-20T05:29:01;97313.00;;;9.30
19666;BMP180;9980;51.020;7.772;2023-12-20T05:31:28;97323.00;;;9.30
19666;BMP180;9980;51.020;7.772;2023-12-20T05:33:55;97331.00;;;9.30
19666;BMP180;9980;51.020;7.772;2023-12-20T05:36:22;97332.00;;;9.30
19666;BMP180;9980;51.020;7.772;2023-12-20T05:38:49;97315.00;;;9.30
19666;BMP180;9980;51.020;7.772;2023-12-20T05:41:16;97327.00;;;9.30
19666;BMP180;9980;51.020;7.772;2023-12-20T05:43:42;97350.00;;;9.30
19666;BMP180;9980;51.020;7.772;2023-12-20T05:46:12;97339.00;;;9.30
19666;BMP180;9980;51.020;7.772;2023-12-20T05:48:39;97337.00;;;9.30
19666;BMP180;9980;51.020;7.772;2023-12-20T05:51:06;97340.00;;;9.30
19666;BMP180;9980;51.020;7.772;2023-12-20T05:53:33;97348.00;;;9.30
19666;BMP180;9980;51.020;7.772;2023-12-20T05:56:00;97345.00;;;9.30
19666;BMP180;9980;51.020;7.772;2023-12-20T05:58:27;97349.00;;;9.30
19666;BMP180;9980;51.020;7.772;2023-12-20T06:00:54;97349.00;;;9.30
19666;BMP180;9980;51.020;7.772;2023-12-20T06:03:21;97361.00;;;9.30
19666;BMP180;9980;51.020;7.772;2023-12-20T06:05:48;97344.00;;;9.30
19666;BMP180;9980;51.020;7.772;2023-12-20T06:08:15;97358.00;;;9.30
19666;BMP180;9980;51.020;7.772;2023-12-20T06:10:42;97354.00;;;9.30
19666;BMP180;9980;51.020;7.772;2023-12-20T06:13:08;97364.00;;;9.30
19666;BMP180;9980;51.020;7.772;2023-12-20T06:15:35;97368.00;;;9.30
19666;BMP180;9980;51.020;7.772;2023-12-20T06:18:02;97361.00;;;9.30
19666;BMP180;9980;51.020;7.772;2023-12-20T06:20:30;97364.00;;;9.30
19666;BMP180;9980;51.020;7.772;2023-12-20T06:22:56;97363.00;;;9.30
19666;BMP180;9980;51.020;7.772;2023-12-20T06:25:23;97360.00;;;9.30
19666;BMP180;9980;51.020;7.772;2023-12-20T06:27:50;97364.00;;;9.30
19666;BMP180;9980;51.020;7.772;2023-12-20T06:30:17;97364.00;;;9.30
19666;BMP180;9980;51.020;7.772;2023-12-20T06:32:44;97357.00;;;9.30
19666;BMP180;9980;51.020;7.772;2023-12-20T06:35:13;97348.00;;;9.30
19666;BMP180;9980;51.020;7.772;2023-12-20T06:37:40;97352.00;;;9.30
19666;BMP180;9980;51.020;7.772;2023-12-20T06:40:10;97345.00;;;9.30
19666;BMP180;9980;51.020;7.772;2023-12-20T06:42:44;97338.00;;;9.30
19666;BMP180;9980;51.020;7.772;2023-12-20T06:45:24;97336.00;;;9.30
19666;BMP180;9980;51.020;7.772;2023-12-20T06:47:51;97349.00;;;9.30
19666;BMP180;9980;51.020;7.772;2023-12-20T06:50:18;97337.00;;;9.30
19666;BMP180;9980;51.020;7.772;2023-12-20T06:52:45;97357.00;;;9.30
19666;BMP180;9980;51.020;7.772;2023-12-20T06:55:12;97353.00;;;9.30
19666;BMP180;9980;51.020;7.772;2023-12-20T06:57:39;97360.00;;;9.30
19666;BMP180;9980;51.020;7.772;2023-12-20T07:00:06;97348.00;;;9.30
19666;BMP180;9980;51.020;7.772;2023-12-20T07:02:35;97358.00;;;9.30
19666;BMP180;9980;51.020;7.772;2023-12-20T07:05:02;97349.00;;;9.30
19666;BMP180;9980;51.020;7.772;2023-12-20T07:07:29;97362.00;;;9.30
19666;BMP180;9980;51.020;7.772;2023-12-20T07:09:56;97354.00;;;9.30
19666;BMP180;9980;51.020;7.772;2023-12-20T07:12:23;97347.00;;;9.30
19666;BMP180;9980;51.020;7.772;2023-12-20T07:14:50;97352.00;;;9.30
19666;BMP180;9980;51.020;7.772;2023-12-20T07:17:17;97348.00;;;9.30
19666;BMP180;9980;51.020;7.772;2023-12-20T07:19:44;97363.00;;;9.30
19666;BMP180;9980;51.020;7.772;2023-12-20T07:22:11;97345.00;;;9.30
19666;BMP180;9980;51.020;7.772;2023-12-20T07:24:38;97351.00;;;9.30
19666;BMP180;9980;51.020;7.772;2023-12-20T07:27:05;97344.00;;;9.20
19666;BMP180;9980;51.020;7.772;2023-12-20T07:29:31;97357.00;;;9.20
19666;BMP180;9980;51.020;7.772;2023-12-20T07:31:58;97359.00;;;9.20
19666;BMP180;9980;51.020;7.772;2023-12-20T07:34:25;97355.00;;;9.20
19666;BMP180;9980;51.020;7.772;2023-12-20T07:36:52;97361.00;;;9.20
19666;BMP180;9980;51.020;7.772;2023-12-20T07:39:19;97360.00;;;9.20
19666;BMP180;9980;51.020;7.772;2023-12-20T07:41:46;97361.00;;;9.20
19666;BMP180;9980;51.020;7.772;2023-12-20T07:44:13;97362.00;;;9.20
19666;BMP180;9980;51.020;7.772;2023-12-20T07:46:42;97381.00;;;9.20
19666;BMP180;9980;51.020;7.772;2023-12-20T07:49:09;97374.00;;;9.20
19666;BMP180;9980;51.020;7.772;2023-12-20T07:51:37;97369.00;;;9.20
19666;BMP180;9980;51.020;7.772;2023-12-20T07:54:03;97374.00;;;9.20
19666;BMP180;9980;51.020;7.772;2023-12-20T07:56:31;97381.00;;;9.20
19666;BMP180;9980;51.020;7.772;2023-12-20T07:58:58;97382.00;;;9.20
19666;BMP180;9980;51.020;7.772;2023-12-20T08:01:27;97373.00;;;9.20
19666;BMP180;9980;51.020;7.772;2023-12-20T08:03:53;97388.00;;;9.20
19666;BMP180;9980;51.020;7.772;2023-12-20T08:06:21;97370.00;;;9.20
19666;BMP180;9980;51.020;7.772;2023-12-20T08:08:48;97381.00;;;9.20
19666;BMP180;9980;51.020;7.772;2023-12-20T08:11:28;97384.00;;;9.20
19666;BMP180;9980;51.020;7.772;2023-12-20T08:13:55;97384.00;;;9.20
19666;BMP180;9980;51.020;7.772;2023-12-20T08:16:22;97391.00;;;9.30
19666;BMP180;9980;51.020;7.772;2023-12-20T08:18:50;97383.00;;;9.20
19666;BMP180;9980;51.020;7.772;2023-12-20T08:21:17;97384.00;;;9.20
19666;BMP180;9980;51.020;7.772;2023-12-20T08:23:46;97400.00;;;9.30
19666;BMP180;9980;51.020;7.772;2023-12-20T08:26:18;97385.00;;;9.30
19666;BMP180;9980;51.020;7.772;2023-12-20T08:28:47;97380.00;;;9.30
19666;BMP180;9980;51.020;7.772;2023-12-20T08:31:15;97389.00;;;9.30
19666;BMP180;9980;51.020;7.772;2023-12-20T08:33:48;97369.00;;;9.30
19666;BMP180;9980;51.020;7.772;2023-12-20T08:36:15;97371.00;;;9.30
19666;BMP180;9980;51.020;7.772;2023-12-20T08:38:44;97361.00;;;9.30
19666;BMP180;9980;51.020;7.772;2023-12-20T08:41:11;97390.00;;;9.30
19666;BMP180;9980;51.020;7.772;2023-12-20T08:43:38;97391.00;;;9.30
19666;BMP180;9980;51.020;7.772;2023-12-20T08:46:07;97386.00;;;9.30
19666;BMP180;9980;51.020;7.772;2023-12-20T08:48:36;97379.00;;;9.30
19666;BMP180;9980;51.020;7.772;2023-12-20T08:51:04;97377.00;;;9.30
19666;BMP180;9980;51.020;7.772;2023-12-20T08:53:34;97367.00;;;9.30
19666;BMP180;9980;51.020;7.772;2023-12-20T08:56:00;97390.00;;;9.30
19666;BMP180;9980;51.020;7.772;2023-12-20T08:58:28;97393.00;;;9.30
19666;BMP180;9980;51.020;7.772;2023-12-20T09:00:56;97375.00;;;9.30
19666;BMP180;9980;51.020;7.772;2023-12-20T09:03:24;97381.00;;;9.30
19666;BMP180;9980;51.020;7.772;2023-12-20T09:05:51;97384.00;;;9.30
19666;BMP180;9980;51.020;7.772;2023-12-20T09:08:18;97387.00;;;9.30
19666;BMP180;9980;51.020;7.772;2023-12-20T09:10:45;97383.00;;;9.30
19666;BMP180;9980;51.020;7.772;2023-12-20T09:13:13;97377.00;;;9.30
19666;BMP180;9980;51.020;7.772;2023-12-20T09:15:39;97363.00;;;9.30
19666;BMP180;9980;51.020;7.772;2023-12-20T09:18:07;97377.00;;;9.30
19666;BMP180;9980;51.020;7.772;2023-12-20T09:20:34;97377.00;;;9.30
19666;BMP180;9980;51.020;7.772;2023-12-20T09:23:02;97377.00;;;9.30
19666;BMP180;9980;51.020;7.772;2023-12-20T09:25:29;97377.00;;;9.30
19666;BMP180;9980;51.020;7.772;2023-12-20T09:27:57;97362.00;;;9.30
19666;BMP180;9980;51.020;7.772;2023-12-20T09:30:24;97367.00;;;9.30
19666;BMP180;9980;51.020;7.772;2023-12-20T09:32:54;97379.00;;;9.30
19666;BMP180;9980;51.020;7.772;2023-12-20T09:35:22;97360.00;;;9.30
19666;BMP180;9980;51.020;7.772;2023-12-20T09:37:49;97378.00;;;9.30
19666;BMP180;9980;51.020;7.772;2023-12-20T09:40:19;97368.00;;;9.30
19666;BMP180;9980;51.020;7.772;2023-12-20T09:43:02;97369.00;;;9.30
19666;BMP180;9980;51.020;7.772;2023-12-20T09:45:31;97356.00;;;9.30
19666;BMP180;9980;51.020;7.772;2023-12-20T09:47:58;97362.00;;;9.30
19666;BMP180;9980;51.020;7.772;2023-12-20T09:50:26;97371.00;;;9.30
19666;BMP180;9980;51.020;7.772;2023-12-20T09:52:54;97346.00;;;9.30
19666;BMP180;9980;51.020;7.772;2023-12-20T09:55:26;97356.00;;;9.30
19666;BMP180;9980;51.020;7.772;2023-12-20T09:57:54;97349.00;;;9.30
19666;BMP180;9980;51.020;7.772;2023-12-20T10:00:21;97340.00;;;9.30
19666;BMP180;9980;51.020;7.772;2023-12-20T10:03:00;97353.00;;;9.30
19666;BMP180;9980;51.020;7.772;2023-12-20T10:05:32;97356.00;;;9.30
19666;BMP180;9980;51.020;7.772;2023-12-20T10:08:00;97348.00;;;9.30
19666;BMP180;9980;51.020;7.772;2023-12-20T10:10:29;97344.00;;;9.30
19666;BMP180;9980;51.020;7.772;2023-12-20T10:13:12;97341.00;;;9.30
19666;BMP180;9980;51.020;7.772;2023-12-20T10:15:40;97348.00;;;9.30
19666;BMP180;9980;51.020;7.772;2023-12-20T10:18:09;97338.00;;;9.30
19666;BMP180;9980;51.020;7.772;2023-12-20T10:20:36;97351.00;;;9.30
19666;BMP180;9980;51.020;7.772;2023-12-20T10:23:04;97360.00;;;9.40
19666;BMP180;9980;51.020;7.772;2023-12-20T10:25:30;97345.00;;;9.40
19666;BMP180;9980;51.020;7.772;2023-12-20T10:28:10;97341.00;;;9.40
19666;BMP180;9980;51.020;7.772;2023-12-20T10:30:38;97344.00;;;9.40
19666;BMP180;9980;51.020;7.772;2023-12-20T10:33:09;97352.00;;;9.40
19666;BMP180;9980;51.020;7.772;2023-12-20T10:35:38;97359.00;;;9.40
19666;BMP180;9980;51.020;7.772;2023-12-20T10:38:12;97345.00;;;9.40
19666;BMP180;9980;51.020;7.772;2023-12-20T10:40:40;97337.00;;;9.40
19666;BMP180;9980;51.020;7.772;2023-12-20T10:43:09;97355.00;;;9.40
19666;BMP180;9980;51.020;7.772;2023-12-20T10:45:37;97341.00;;;9.40
19666;BMP180;9980;51.020;7.772;2023-12-20T10:48:05;97343.00;;;9.40
19666;BMP180;9980;51.020;7.772;2023-12-20T10:50:32;97338.00;;;9.40
19666;BMP180;9980;51.020;7.772;2023-12-20T10:53:03;97337.00;;;9.40
19666;BMP180;9980;51.020;7.772;2023-12-20T10:55:30;97340.00;;;9.40
19666;BMP180;9980;51.020;7.772;2023-12-20T10:58:03;97346.00;;;9.40
19666;BMP180;9980;51.020;7.772;2023-12-20T11:00:35;97335.00;;;9.40
19666;BMP180;9980;51.020;7.772;2023-12-20T11:03:09;97324.00;;;9.40
19666;BMP180;9980;51.020;7.772;2023-12-20T11:06:02;97329.00;;;9.40
19666;BMP180;9980;51.020;7.772;2023-12-20T11:08:43;97327.00;;;9.40
19666;BMP180;9980;51.020;7.772;2023-12-20T11:14:08;97298.00;;;9.40
19666;BMP180;9980;51.020;7.772;2023-12-20T11:16:41;97310.00;;;9.40
19666;BMP180;9980;51.020;7.772;2023-12-20T11:19:20;97324.00;;;9.40
19666;BMP180;9980;51.020;7.772;2023-12-20T11:21:47;97300.00;;;9.40
19666;BMP180;9980;51.020;7.772;2023-12-20T11:24:15;97308.00;;;9.40
19666;BMP180;9980;51.020;7.772;2023-12-20T11:26:47;97314.00;;;9.40
19666;BMP180;9980;51.020;7.772;2023-12-20T11:29:37;97309.00;;;9.40
19666;BMP180;9980;51.020;7.772;2023-12-20T11:37:36;97308.00;;;9.50
19666;BMP180;9980;51.020;7.772;2023-12-20T11:40:14;97308.00;;;9.40
19666;BMP180;9980;51.020;7.772;2023-12-20T11:42:48;97311.00;;;9.40
19666;BMP180;9980;51.020;7.772;2023-12-20T11:45:20;97309.00;;;9.40
19666;BMP180;9980;51.020;7.772;2023-12-20T11:47:50;97316.00;;;9.50
19666;BMP180;9980;51.020;7.772;2023-12-20T11:50:18;97316.00;;;9.50
19666;BMP180;9980;51.020;7.772;2023-12-20T11:52:47;97300.00;;;9.50
19666;BMP180;9980;51.020;7.772;2023-12-20T11:55:14;97292.00;;;9.50
19666;BMP180;9980;51.020;7.772;2023-12-20T11:57:43;97288.00;;;9.50
19666;BMP180;9980;51.020;7.772;2023-12-20T12:00:11;97302.00;;;9.50
19666;BMP180;9980;51.020;7.772;2023-12-20T12:02:39;97302.00;;;9.50
19666;BMP180;9980;51.020;7.772;2023-12-20T12:05:07;97311.00;;;9.50
19666;BMP180;9980;51.020;7.772;2023-12-20T12:07:35;97303.00;;;9.50
19666;BMP180;9980;51.020;7.772;2023-12-20T12:10:02;97293.00;;;9.50
19666;BMP180;9980;51.020;7.772;2023-12-20T12:12:30;97293.00;;;9.50
19666;BMP180;9980;51.020;7.772;2023-12-20T12:14:59;97280.00;;;9.50
19666;BMP180;9980;51.020;7.772;2023-12-20T12:17:26;97285.00;;;9.50
19666;BMP180;9980;51.020;7.772;2023-12-20T12:20:06;97281.00;;;9.50
19666;BMP180;9980;51.020;7.772;2023-12-20T12:22:33;97272.00;;;9.50
19666;BMP180;9980;51.020;7.772;2023-12-20T12:25:11;97275.00;;;9.50
19666;BMP180;9980;51.020;7.772;2023-12-20T12:27:43;97265.00;;;9.50
19666;BMP180;9980;51.020;7.772;2023-12-20T12:30:10;97266.00;;;9.50
19666;BMP180;9980;51.020;7.772;2023-12-20T12:32:40;97265.00;;;9.50
19666;BMP180;9980;51.020;7.772;2023-12-20T12:35:08;97264.00;;;9.50
19666;BMP180;9980;51.020;7.772;2023-12-20T12:37:39;97243.00;;;9.50
19666;BMP180;9980;51.020;7.772;2023-12-20T12:40:17;97243.00;;;9.50
19666;BMP180;9980;51.020;7.772;2023-12-20T12:42:45;97245.00;;;9.50
19666;BMP180;9980;51.020;7.772;2023-12-20T12:45:12;97243.00;;;9.50
19666;BMP180;9980;51.020;7.772;2023-12-20T12:47:39;97238.00;;;9.50
19666;BMP180;9980;51.020;7.772;2023-12-20T12:50:07;97235.00;;;9.60
19666;BMP180;9980;51.020;7.772;2023-12-20T12:52:35;97241.00;;;9.60
19666;BMP180;9980;51.020;7.772;2023-12-20T12:55:03;97234.00;;;9.60
19666;BMP180;9980;51.020;7.772;2023-12-20T12:57:32;97241.00;;;9.60
19666;BMP180;9980;51.020;7.772;2023-12-20T12:59:59;97229.00;;;9.60
19666;BMP180;9980;51.020;7.772;2023-12-20T13:02:26;97225.00;;;9.60
19666;BMP180;9980;51.020;7.772;2023-12-20T13:04:53;97232.00;;;9.60
19666;BMP180;9980;51.020;7.772;2023-12-20T13:07:20;97225.00;;;9.60
19666;BMP180;9980;51.020;7.772;2023-12-20T13:09:47;97221.00;;;9.60
19666;BMP180;9980;51.020;7.772;2023-12-20T13:12:14;97218.00;;;9.60
19666;BMP180;9980;51.020;7.772;2023-12-20T13:14:41;97216.00;;;9.60
19666;BMP180;9980;51.020;7.772;2023-12-20T13:17:08;97218.00;;;9.60
19666;BMP180;9980;51.020;7.772;2023-12-20T13:19:35;97216.00;;;9.60
19666;BMP180;9980;51.020;7.772;2023-12-20T13:22:03;97212.00;;;9.60
19666;BMP180;9980;51.020;7.772;2023-12-20T13:24:30;97209.00;;;9.60
19666;BMP180;9980;51.020;7.772;2023-12-20T13:26:57;97206.00;;;9.60
19666;BMP180;9980;51.020;7.772;2023-12-20T13:29:24;97194.00;;;9.60
19666;BMP180;9980;51.020;7.772;2023-12-20T13:31:54;97197.00;;;9.60
19666;BMP180;9980;51.020;7.772;2023-12-20T13:34:21;97205.00;;;9.60
19666;BMP180;9980;51.020;7.772;2023-12-20T13:36:48;97207.00;;;9.60
19666;BMP180;9980;51.020;7.772;2023-12-20T13:39:17;97200.00;;;9.60
19666;BMP180;9980;51.020;7.772;2023-12-20T13:41:44;97193.00;;;9.60
19666;BMP180;9980;51.020;7.772;2023-12-20T13:44:11;97192.00;;;9.60
19666;BMP180;9980;51.020;7.772;2023-12-20T13:46:40;97185.00;;;9.70
19666;BMP180;9980;51.020;7.772;2023-12-20T13:49:10;97173.00;;;9.60
19666;BMP180;9980;51.020;7.772;2023-12-20T13:51:39;97185.00;;;9.70
19666;BMP180;9980;51.020;7.772;2023-12-20T13:54:06;97182.00;;;9.70
19666;BMP180;9980;51.020;7.772;2023-12-20T13:56:32;97167.00;;;9.70
19666;BMP180;9980;51.020;7.772;2023-12-20T13:59:12;97182.00;;;9.70
19666;BMP180;9980;51.020;7.772;2023-12-20T14:01:40;97160.00;;;9.70
19666;BMP180;9980;51.020;7.772;2023-12-20T14:04:07;97157.00;;;9.70
19666;BMP180;9980;51.020;7.772;2023-12-20T14:06:34;97171.00;;;9.70
19666;BMP180;9980;51.020;7.772;2023-12-20T14:09:01;97168.00;;;9.70
19666;BMP180;9980;51.020;7.772;2023-12-20T14:11:29;97158.00;;;9.70
19666;BMP180;9980;51.020;7.772;2023-12-20T14:13:56;97167.00;;;9.70
19666;BMP180;9980;51.020;7.772;2023-12-20T14:16:24;97150.00;;;9.80
19666;BMP180;9980;51.020;7.772;2023-12-20T14:18:51;97143.00;;;9.70
19666;BMP180;9980;51.020;7.772;2023-12-20T14:21:19;97149.00;;;9.80
19666;BMP180;9980;51.020;7.772;2023-12-20T14:23:46;97149.00;;;9.80
19666;BMP180;9980;51.020;7.772;2023-12-20T14:26:15;97142.00;;;9.80
19666;BMP180;9980;51.020;7.772;2023-12-20T14:28:43;97148.00;;;9.80
19666;BMP180;9980;51.020;7.772;2023-12-20T14:31:10;97141.00;;;9.80
19666;BMP180;9980;51.020;7.772;2023-12-20T14:33:37;97157.00;;;9.80
19666;BMP180;9980;51.020;7.772;2023-12-20T14:36:06;97142.00;;;9.80
19666;BMP180;9980;51.020;7.772;2023-12-20T14:38:33;97163.00;;;9.80
19666;BMP180;9980;51.020;7.772;2023-12-20T14:41:00;97152.00;;;9.80
19666;BMP180;9980;51.020;7.772;2023-12-20T14:43:27;97143.00;;;9.80
19666;BMP180;9980;51.020;7.772;2023-12-20T14:45:54;97143.00;;;9.80